Time;durP1;ratioP1;P1;durP2;ratioP2;P2;SDS_P1;SDS_P2;PMS_P1;PMS_P2;Temp;Humidity;BMP_temperature;BMP_pressure;BME280_temperature;BME280_humidity;BME280_pressure;Samples;Min_cycle;Max_cycle;Signal;HPM_P1;HPM_P2
2023/01/27 00:01:04;;;;;;;33.97;14.07;;;;;;;-141.97;100.00;47895.81;5077148;28;20466;-83
2023/01/27 00:03:30;;;;;;;32.87;12.67;;;;;;;-141.97;100.00;47947.72;5082267;28;20271;-83
2023/01/27 00:05:56;;;;;;;36.27;15.97;;;;;;;-141.97;100.00;47757.41;5085075;28;20165;-82
2023/01/27 00:08:21;;;;;;;43.97;17.10;;;;;;;-141.97;100.00;47951.56;5095359;28;20161;-83
2023/01/27 00:13:25;;;;;;;36.87;16.70;;;;;;;-141.97;100.00;47945.81;5096449;28;20153;-83
2023/01/27 00:13:32;;;;;;;38.40;17.47;;;;;;;-141.97;100.00;47922.72;5085063;28;20164;-83
2023/01/27 00:15:58;;;;;;;43.47;17.40;;;;;;;-141.97;100.00;47957.34;5082521;28;20477;-84
2023/01/27 00:18:24;;;;;;;43.43;17.23;;;;;;;-141.97;100.00;47788.19;5082632;28;20205;-84
2023/01/27 00:26:18;;;;;;;39.97;17.57;;;;;;;-141.97;100.00;47909.28;5080054;28;20398;-84
2023/01/27 00:28:45;;;;;;;46.70;18.67;;;;;;;-141.97;100.00;47920.81;5079006;28;20403;-84
2023/01/27 00:34:00;;;;;;;50.63;19.70;;;;;;;-141.97;100.00;47943.88;5079803;28;20417;-84
2023/01/27 00:36:28;;;;;;;48.20;19.30;;;;;;;-141.97;100.00;47922.72;5094995;28;20427;-85
2023/01/27 00:38:54;;;;;;;52.07;21.57;;;;;;;-141.97;100.00;47907.34;5079577;28;20470;-84
2023/01/27 00:41:20;;;;;;;45.73;18.10;;;;;;;-141.97;100.00;47899.66;5080586;28;20464;-85
2023/01/27 00:43:46;;;;;;;50.87;19.97;;;;;;;-141.97;100.00;47884.28;5080725;28;20164;-85
2023/01/27 00:46:11;;;;;;;55.03;20.60;;;;;;;-141.97;100.00;47918.88;5077815;28;20610;-85
2023/01/27 00:48:37;;;;;;;54.60;20.33;;;;;;;-141.97;100.00;47915.03;5078528;28;20403;-85
2023/01/27 00:51:03;;;;;;;39.97;16.07;;;;;;;-141.97;100.00;47938.09;5078075;28;20168;-85
2023/01/27 00:53:28;;;;;;;38.50;17.23;;;;;;;-141.97;100.00;47888.13;5077186;28;20676;-85
2023/01/27 00:55:53;;;;;;;50.27;18.57;;;;;;;-141.97;100.00;47926.56;5076477;28;20176;-84
2023/01/27 00:58:21;;;;;;;45.67;18.50;;;;;;;-141.97;100.00;47926.56;5076550;28;20737;-85
2023/01/27 01:00:46;;;;;;;55.03;22.00;;;;;;;-141.97;100.00;47930.41;5075481;28;20153;-84
2023/01/27 01:03:11;;;;;;;51.97;20.90;;;;;;;-141.97;100.00;47899.66;5073106;28;20415;-84
2023/01/27 01:05:37;;;;;;;44.67;18.90;;;;;;;-141.97;100.00;47926.56;5076353;28;20180;-84
2023/01/27 01:08:02;;;;;;;44.90;18.50;;;;;;;-141.97;100.00;47861.22;5083544;28;20184;-84
2023/01/27 01:10:28;;;;;;;45.27;19.93;;;;;;;-141.97;100.00;47930.41;5111224;28;20641;-84
2023/01/27 01:12:53;;;;;;;47.80;19.70;;;;;;;-141.97;100.00;47890.06;5101896;28;20172;-85
2023/01/27 01:15:19;;;;;;;44.93;19.20;;;;;;;-141.97;100.00;47903.50;5097388;28;20315;-85
2023/01/27 01:17:44;;;;;;;52.00;20.23;;;;;;;-141.97;100.00;47922.72;5097404;28;20238;-85
2023/01/27 01:20:10;;;;;;;46.33;18.17;;;;;;;-141.97;100.00;47930.41;5107832;28;20172;-85
2023/01/27 01:22:35;;;;;;;39.63;15.10;;;;;;;-141.97;100.00;47878.53;5107039;28;20172;-84
2023/01/27 01:25:00;;;;;;;43.97;18.20;;;;;;;-141.97;100.00;47916.97;5095456;28;20186;-85
2023/01/27 01:27:26;;;;;;;43.27;17.50;;;;;;;-141.97;100.00;47918.88;5094047;28;20205;-85
2023/01/27 01:29:51;;;;;;;43.13;16.47;;;;;;;-141.97;100.00;47872.75;5093788;28;20168;-85
2023/01/27 01:32:17;;;;;;;43.67;16.87;;;;;;;-141.97;100.00;47899.66;5093302;28;20168;-85
2023/01/27 01:34:42;;;;;;;34.33;13.30;;;;;;;-141.97;100.00;47913.13;5093233;28;20160;-85
2023/01/27 01:37:08;;;;;;;40.07;15.73;;;;;;;-141.97;100.00;47855.44;5074717;28;20283;-85
2023/01/27 01:39:33;;;;;;;43.60;18.27;;;;;;;-141.97;100.00;47903.50;5093126;28;20313;-84
2023/01/27 01:41:59;;;;;;;44.07;17.70;;;;;;;-141.97;100.00;47874.69;5082671;28;20175;-84
2023/01/27 01:44:29;;;;;;;38.17;16.43;;;;;;;-141.97;100.00;47905.44;5072867;28;20224;-85
2023/01/27 01:46:55;;;;;;;32.17;13.40;;;;;;;-141.97;100.00;47976.56;5088513;28;20282;-86
2023/01/27 01:49:35;;;;;;;40.50;17.30;;;;;;;-141.97;100.00;47928.50;5072630;28;20446;-85
2023/01/27 01:52:09;;;;;;;41.00;16.53;;;;;;;-141.97;100.00;47903.50;5072556;28;20172;-85
2023/01/27 01:54:41;;;;;;;36.13;14.50;;;;;;;-141.97;100.00;47922.72;5072782;28;20415;-85
2023/01/27 01:57:18;;;;;;;36.40;16.10;;;;;;;-141.97;100.00;47976.56;5073025;28;20454;-85
2023/01/27 02:00:05;;;;;;;37.00;15.67;;;;;;;-141.97;100.00;47880.44;5073850;28;20414;-85
2023/01/27 02:02:32;;;;;;;33.47;15.27;;;;;;;-141.97;100.00;47913.13;5073245;28;20407;-85
2023/01/27 02:05:12;;;;;;;38.80;16.23;;;;;;;-141.97;100.00;47951.56;5073500;28;20922;-86
2023/01/27 02:08:09;;;;;;;36.43;16.40;;;;;;;-141.97;100.00;47897.75;5072333;28;20442;-86
2023/01/27 02:10:34;;;;;;;29.90;11.43;;;;;;;-141.97;100.00;47934.25;5071832;28;20415;-85
2023/01/27 02:13:00;;;;;;;37.83;16.37;;;;;;;-141.97;100.00;47915.03;5054605;28;20451;-85
2023/01/27 02:15:28;;;;;;;34.27;14.30;;;;;;;-141.97;100.00;47932.34;5072043;28;20177;-86
2023/01/27 02:17:53;;;;;;;37.73;16.00;;;;;;;-141.97;100.00;47901.59;5071451;28;20561;-86
2023/01/27 02:20:21;;;;;;;40.77;17.07;;;;;;;-141.97;100.00;47888.13;5071450;28;20411;-86
2023/01/27 02:22:55;;;;;;;41.57;18.43;;;;;;;-141.97;100.00;47905.44;5071361;28;20188;-86
2023/01/27 02:25:33;;;;;;;37.03;16.60;;;;;;;-141.97;100.00;47928.50;5070991;28;20968;-86
2023/01/27 02:27:59;;;;;;;35.50;15.53;;;;;;;-141.97;100.00;47918.88;5071564;28;20406;-86
2023/01/27 02:30:24;;;;;;;40.83;17.67;;;;;;;-141.97;100.00;47928.50;5071486;28;20422;-86
2023/01/27 02:32:50;;;;;;;37.73;16.27;;;;;;;-141.97;100.00;47890.06;5071781;28;20411;-86
2023/01/27 02:35:21;;;;;;;36.60;15.77;;;;;;;-141.97;100.00;47940.03;5071953;28;20172;-86
2023/01/27 02:37:49;;;;;;;36.53;16.60;;;;;;;-141.97;100.00;47974.63;5071805;28;20192;-86
2023/01/27 02:40:15;;;;;;;37.13;17.03;;;;;;;-141.97;100.00;48001.53;5071980;28;20801;-85
2023/01/27 02:42:41;;;;;;;37.53;16.07;;;;;;;-141.97;100.00;47899.66;5053908;28;20426;-85
2023/01/27 02:45:06;;;;;;;39.47;16.30;;;;;;;-141.97;100.00;47884.28;5071063;28;20836;-85
2023/01/27 02:47:32;;;;;;;37.97;14.73;;;;;;;-141.97;100.00;47893.91;5071294;28;20169;-85
2023/01/27 02:49:57;;;;;;;40.67;17.30;;;;;;;-141.97;100.00;47955.41;5071477;28;20176;-85
2023/01/27 02:52:22;;;;;;;37.53;17.47;;;;;;;-141.97;100.00;47915.03;5071998;28;20251;-85
2023/01/27 02:54:48;;;;;;;41.80;19.07;;;;;;;-141.97;100.00;47890.06;5075145;28;20164;-85
2023/01/27 02:57:13;;;;;;;42.87;18.40;;;;;;;-141.97;100.00;47922.72;5074452;28;20204;-85
2023/01/27 02:59:39;;;;;;;44.00;18.03;;;;;;;-141.97;100.00;47899.66;5076825;28;20248;-86
2023/01/27 03:02:05;;;;;;;41.67;19.03;;;;;;;-141.97;100.00;47926.56;5087475;28;20161;-85
2023/01/27 03:04:31;;;;;;;40.67;18.40;;;;;;;-141.97;100.00;47890.06;5100126;28;20184;-84
2023/01/27 03:06:56;;;;;;;40.40;17.57;;;;;;;-141.97;100.00;47911.19;5098413;28;20415;-84
2023/01/27 03:09:22;;;;;;;43.00;18.60;;;;;;;-141.97;100.00;47882.38;5098564;28;20149;-84
2023/01/27 03:19:59;;;;;;;38.10;16.93;;;;;;;-141.97;100.00;47930.41;5080499;28;20409;-85
2023/01/27 03:22:25;;;;;;;32.60;15.40;;;;;;;-141.97;100.00;47897.75;5091766;28;20434;-85
2023/01/27 03:24:51;;;;;;;33.20;15.00;;;;;;;-141.97;100.00;47938.09;5097039;28;20188;-85
2023/01/27 03:27:16;;;;;;;33.17;14.13;;;;;;;-141.97;100.00;47849.69;5083039;28;20173;-85
2023/01/27 03:29:53;;;;;;;30.70;14.50;;;;;;;-141.97;100.00;47888.13;5076031;28;20168;-85
2023/01/27 03:32:19;;;;;;;30.30;14.27;;;;;;;-141.97;100.00;47930.41;5075519;28;20247;-85
2023/01/27 03:34:45;;;;;;;30.87;14.33;;;;;;;-141.97;100.00;47941.94;5074514;28;20435;-84
2023/01/27 03:48:06;;;;;;;27.83;13.33;;;;;;;-141.97;100.00;47926.56;5075478;28;20765;-85
2023/01/27 03:50:36;;;;;;;27.67;13.57;;;;;;;-141.97;100.00;47915.03;5076252;28;20411;-85
2023/01/27 03:53:03;;;;;;;26.60;13.53;;;;;;;-141.97;100.00;47932.34;5076268;28;20638;-86
2023/01/27 03:55:33;;;;;;;30.33;13.53;;;;;;;-141.97;100.00;47878.53;5075493;28;20476;-86
2023/01/27 03:58:17;;;;;;;28.80;13.67;;;;;;;-141.97;100.00;47928.50;5075495;28;20490;-85
2023/01/27 04:00:42;;;;;;;27.53;13.37;;;;;;;-141.97;100.00;47911.19;5074974;28;20407;-86
2023/01/27 04:08:35;;;;;;;29.47;14.00;;;;;;;-141.97;100.00;47926.56;5074359;28;20424;-85
2023/01/27 04:13:48;;;;;;;43.80;20.73;;;;;;;-141.97;100.00;47905.44;5074326;28;20252;-85
2023/01/27 04:16:15;;;;;;;52.70;25.60;;;;;;;-141.97;100.00;47932.34;5076605;28;20933;-85
2023/01/27 04:18:41;;;;;;;36.23;17.53;;;;;;;-141.97;100.00;47915.03;5077089;28;20660;-87
2023/01/27 04:21:06;;;;;;;33.80;17.00;;;;;;;-141.97;100.00;47897.75;5078264;28;20526;-87
2023/01/27 04:23:32;;;;;;;42.83;21.13;;;;;;;-141.97;100.00;47915.03;5073768;28;20172;-85
2023/01/27 04:25:59;;;;;;;30.40;14.83;;;;;;;-141.97;100.00;47924.66;5074174;28;20242;-86
2023/01/27 04:28:24;;;;;;;30.23;13.53;;;;;;;-141.97;100.00;47930.41;5076533;28;20167;-87
2023/01/27 04:30:50;;;;;;;42.67;20.87;;;;;;;-141.97;100.00;47826.63;5075950;28;20760;-87
2023/01/27 04:33:15;;;;;;;49.43;23.03;;;;;;;-141.97;100.00;47945.81;5077066;28;20197;-85
2023/01/27 04:35:44;;;;;;;46.43;22.37;;;;;;;-141.97;100.00;47845.84;5079282;28;20179;-85
2023/01/27 04:38:10;;;;;;;36.07;16.67;;;;;;;-141.97;100.00;47924.66;5076512;28;20200;-88
2023/01/27 04:40:36;;;;;;;32.43;16.03;;;;;;;-141.97;100.00;47909.28;5076495;28;20411;-87
2023/01/27 04:43:02;;;;;;;29.90;14.87;;;;;;;-141.97;100.00;47884.28;5077447;28;20778;-87
2023/01/27 04:45:27;;;;;;;27.27;13.93;;;;;;;-141.97;100.00;47863.13;5076837;28;20227;-85
2023/01/27 04:47:52;;;;;;;29.33;14.67;;;;;;;-141.97;100.00;47932.34;5073874;28;20169;-86
2023/01/27 04:50:18;;;;;;;31.23;14.47;;;;;;;-141.97;100.00;47795.88;5073081;28;20749;-87
2023/01/27 04:52:44;;;;;;;30.73;15.13;;;;;;;-141.97;100.00;47911.19;5074704;28;20169;-87
2023/01/27 04:55:10;;;;;;;30.83;15.73;;;;;;;-141.97;100.00;47949.66;5074828;28;20472;-86
2023/01/27 04:57:35;;;;;;;32.67;14.57;;;;;;;-141.97;100.00;47918.88;5074153;28;20197;-85
2023/01/27 05:00:02;;;;;;;37.03;17.63;;;;;;;-141.97;100.00;47861.22;5073747;28;20525;-87
2023/01/27 05:02:28;;;;;;;30.80;15.43;;;;;;;-141.97;100.00;47949.66;5056452;28;20204;-88
2023/01/27 05:04:53;;;;;;;30.47;16.37;;;;;;;-141.97;100.00;47903.50;5075663;28;20438;-85
2023/01/27 05:07:19;;;;;;;35.93;18.03;;;;;;;-141.97;100.00;47893.91;5073152;28;20567;-86
2023/01/27 05:09:44;;;;;;;43.83;20.27;;;;;;;-141.97;100.00;47957.34;5073587;28;20169;-88
2023/01/27 05:12:09;;;;;;;52.47;25.47;;;;;;;-141.97;100.00;47918.88;5074204;28;20196;-86
2023/01/27 05:14:35;;;;;;;51.90;25.43;;;;;;;-141.97;100.00;47934.25;5081361;28;20215;-87
2023/01/27 05:17:00;;;;;;;48.63;24.70;;;;;;;-141.97;100.00;47949.66;5083258;28;20184;-85
2023/01/27 05:19:26;;;;;;;64.40;31.07;;;;;;;-141.97;100.00;47899.66;5077333;28;20177;-87
2023/01/27 05:21:51;;;;;;;54.17;25.73;;;;;;;-141.97;100.00;47930.41;5078454;28;20278;-87
2023/01/27 05:24:16;;;;;;;44.30;20.27;;;;;;;-141.97;100.00;47936.19;5075439;28;20179;-87
2023/01/27 05:26:42;;;;;;;40.63;18.20;;;;;;;-141.97;100.00;47903.50;5074027;28;20616;-86
2023/01/27 05:29:08;;;;;;;40.00;17.40;;;;;;;-141.97;100.00;47916.97;5075655;28;20572;-87
2023/01/27 05:31:33;;;;;;;34.30;16.17;;;;;;;-141.97;100.00;47888.13;5073680;28;20169;-87
2023/01/27 05:34:00;;;;;;;35.83;17.90;;;;;;;-141.97;100.00;47928.50;5054936;28;20441;-85
2023/01/27 05:36:27;;;;;;;34.77;16.83;;;;;;;-141.97;100.00;47907.34;5055535;28;20626;-86
2023/01/27 05:38:53;;;;;;;58.80;27.80;;;;;;;-141.97;100.00;47934.25;5072419;28;20468;-87
2023/01/27 05:41:20;;;;;;;68.27;31.70;;;;;;;-141.97;100.00;47945.81;5078891;28;20406;-86
2023/01/27 05:43:49;;;;;;;76.87;35.50;;;;;;;-141.97;100.00;47922.72;5092081;28;20456;-86
2023/01/27 05:46:20;;;;;;;88.67;44.73;;;;;;;-141.97;100.00;47949.66;5091777;28;20440;-86
2023/01/27 05:48:48;;;;;;;104.83;53.27;;;;;;;-141.97;100.00;47901.59;5092292;28;20493;-86
2023/01/27 05:51:16;;;;;;;74.67;38.00;;;;;;;-141.97;100.00;47890.06;5092289;28;20405;-86
2023/01/27 05:53:42;;;;;;;54.20;26.00;;;;;;;-141.97;100.00;47932.34;5092321;28;20438;-87
2023/01/27 05:56:13;;;;;;;61.53;31.37;;;;;;;-141.97;100.00;47884.28;5090844;28;20402;-88
2023/01/27 05:58:39;;;;;;;82.30;42.00;;;;;;;-141.97;100.00;47932.34;5109043;28;20977;-87
2023/01/27 06:01:18;;;;;;;47.93;23.60;;;;;;;-141.97;100.00;47899.66;5102672;28;20418;-85
2023/01/27 06:03:45;;;;;;;53.43;26.57;;;;;;;-141.97;100.00;47915.03;5104312;28;20164;-86
2023/01/27 06:06:12;;;;;;;55.77;26.63;;;;;;;-141.97;100.00;47888.13;5087694;28;20463;-85
2023/01/27 06:08:38;;;;;;;56.03;28.80;;;;;;;-141.97;100.00;47930.41;5094499;28;20411;-87
2023/01/27 06:11:04;;;;;;;50.67;26.73;;;;;;;-141.97;100.00;47963.09;5093239;28;20434;-88
2023/01/27 06:13:30;;;;;;;75.37;36.27;;;;;;;-141.97;100.00;47895.81;5093778;28;20474;-86
2023/01/27 06:15:56;;;;;;;54.07;29.00;;;;;;;-141.97;100.00;47922.72;5092637;28;20406;-87
2023/01/27 06:18:22;;;;;;;53.60;27.83;;;;;;;-141.97;100.00;47936.19;5092720;28;20467;-87
2023/01/27 06:20:48;;;;;;;54.90;28.80;;;;;;;-141.97;100.00;47913.13;5092640;28;20974;-86
2023/01/27 06:23:15;;;;;;;55.30;25.63;;;;;;;-141.97;100.00;47913.13;5092042;28;20410;-89
2023/01/27 06:25:43;;;;;;;126.60;60.10;;;;;;;-141.97;100.00;47972.72;5092552;28;20166;-87
2023/01/27 06:28:08;;;;;;;65.43;34.23;;;;;;;-141.97;100.00;47888.13;5072926;28;20422;-87
2023/01/27 06:30:36;;;;;;;77.30;39.27;;;;;;;-141.97;100.00;47893.91;5091851;28;20409;-88
2023/01/27 06:33:02;;;;;;;61.27;30.37;;;;;;;-141.97;100.00;47953.50;5091766;28;20178;-86
2023/01/27 06:35:28;;;;;;;32.43;15.60;;;;;;;-141.97;100.00;47934.25;5073172;28;20504;-88
2023/01/27 06:37:54;;;;;;;44.83;22.63;;;;;;;-141.97;100.00;47922.72;5092050;28;20462;-86
2023/01/27 06:40:19;;;;;;;60.83;30.27;;;;;;;-141.97;100.00;47865.06;5091787;28;20425;-88
2023/01/27 06:42:45;;;;;;;56.13;30.33;;;;;;;-141.97;100.00;47845.84;5091792;28;20208;-85
2023/01/27 06:45:11;;;;;;;47.60;25.00;;;;;;;-141.97;100.00;47920.81;5073026;28;20215;-85
2023/01/27 06:47:38;;;;;;;43.53;22.67;;;;;;;-141.97;100.00;47890.06;5091748;28;20170;-86
2023/01/27 06:50:05;;;;;;;49.13;22.17;;;;;;;-141.97;100.00;47872.75;5091925;28;20493;-85
2023/01/27 06:52:30;;;;;;;97.43;36.20;;;;;;;-141.97;100.00;47922.72;5091910;28;20414;-87
2023/01/27 06:54:56;;;;;;;116.07;43.00;;;;;;;-141.97;100.00;47905.44;5073659;28;20422;-86
2023/01/27 06:57:21;;;;;;;185.77;70.17;;;;;;;-141.97;100.00;47897.75;5074702;28;20551;-86
2023/01/27 06:59:47;;;;;;;124.60;45.73;;;;;;;-141.97;100.00;47988.09;5093473;28;20160;-87
2023/01/27 07:02:12;;;;;;;88.53;36.73;;;;;;;-141.97;100.00;47972.72;5098011;28;20203;-85
2023/01/27 07:04:38;;;;;;;62.80;31.83;;;;;;;-141.97;100.00;47915.03;5105091;28;20156;-85
2023/01/27 07:07:03;;;;;;;52.17;28.00;;;;;;;-141.97;100.00;47888.13;5089943;28;20172;-85
2023/01/27 07:09:29;;;;;;;77.77;39.63;;;;;;;-141.97;100.00;47911.19;5092379;28;20304;-85
2023/01/27 07:11:54;;;;;;;75.10;37.87;;;;;;;-141.97;100.00;47895.81;5095432;28;20188;-87
2023/01/27 07:14:20;;;;;;;120.20;59.07;;;;;;;-141.97;100.00;47951.56;5094587;28;20251;-87
2023/01/27 07:16:45;;;;;;;150.43;71.33;;;;;;;-141.97;100.00;47961.19;5091747;28;20201;-87
2023/01/27 07:19:11;;;;;;;145.23;68.50;;;;;;;-141.97;100.00;47924.66;5096820;28;20202;-85
2023/01/27 07:21:37;;;;;;;107.43;50.03;;;;;;;-141.97;100.00;47945.81;5096295;28;20184;-85
2023/01/27 07:24:03;;;;;;;70.87;34.57;;;;;;;-141.97;100.00;47916.97;5096238;28;20438;-86
2023/01/27 07:26:28;;;;;;;122.03;62.43;;;;;;;-141.97;100.00;47934.25;5113229;28;20149;-85
2023/01/27 07:28:54;;;;;;;79.63;44.33;;;;;;;-141.97;100.00;47957.34;5102354;28;20180;-86
2023/01/27 07:31:20;;;;;;;55.97;28.80;;;;;;;-141.97;100.00;47815.09;5072694;28;20650;-85
2023/01/27 07:33:45;;;;;;;53.70;25.13;;;;;;;-141.97;100.00;47903.50;5072390;28;20410;-85
2023/01/27 07:36:11;;;;;;;44.60;21.93;;;;;;;-141.97;100.00;47961.19;5090661;28;20172;-85
2023/01/27 07:38:37;;;;;;;55.80;26.93;;;;;;;-141.97;100.00;47938.09;5091035;28;20203;-84
2023/01/27 07:41:07;;;;;;;60.00;30.70;;;;;;;-141.97;100.00;47943.88;5083671;28;20676;-85
2023/01/27 07:43:33;;;;;;;66.17;34.10;;;;;;;-141.97;100.00;47922.72;5078895;28;20442;-85
2023/01/27 07:45:59;;;;;;;115.53;47.67;;;;;;;-141.97;100.00;47915.03;5075847;28;20470;-85
2023/01/27 07:48:24;;;;;;;93.33;39.17;;;;;;;-141.97;100.00;47924.66;5094346;28;20171;-85
2023/01/27 07:50:50;;;;;;;96.67;43.47;;;;;;;-141.97;100.00;47930.41;5094800;28;20467;-85
2023/01/27 07:53:15;;;;;;;119.53;56.40;;;;;;;-141.97;100.00;47941.94;5097014;28;20613;-84
2023/01/27 07:55:41;;;;;;;142.47;70.03;;;;;;;-141.97;100.00;47922.72;5096105;28;20165;-86
2023/01/27 07:58:07;;;;;;;148.17;70.13;;;;;;;-141.97;100.00;47976.56;5096074;28;20188;-87
2023/01/27 08:00:34;;;;;;;63.00;30.80;;;;;;;-141.97;100.00;47905.44;5096158;28;20233;-84
2023/01/27 08:03:00;;;;;;;87.63;38.47;;;;;;;-141.97;100.00;47805.47;5094414;28;20418;-85
2023/01/27 08:05:27;;;;;;;80.23;37.27;;;;;;;-141.97;100.00;47903.50;5074582;28;20458;-85
2023/01/27 08:07:54;;;;;;;67.33;32.83;;;;;;;-141.97;100.00;47876.59;5073352;28;20407;-87
2023/01/27 08:10:20;;;;;;;77.43;35.57;;;;;;;-141.97;100.00;47930.41;5073054;28;20808;-86
2023/01/27 08:12:46;;;;;;;84.93;38.33;;;;;;;-141.97;100.00;47938.09;5062746;28;20474;-85
2023/01/27 08:15:11;;;;;;;76.00;35.03;;;;;;;-141.97;100.00;47926.56;5076088;28;20229;-86
2023/01/27 08:17:37;;;;;;;41.20;22.03;;;;;;;-141.97;100.00;47974.63;5073445;28;20196;-85
2023/01/27 08:20:02;;;;;;;46.33;20.73;;;;;;;-141.97;100.00;47907.34;5074340;28;20193;-85
2023/01/27 08:22:28;;;;;;;58.80;29.33;;;;;;;-141.97;100.00;47836.22;5074330;28;20194;-87
2023/01/27 08:24:53;;;;;;;59.23;30.43;;;;;;;-141.97;100.00;47980.41;5073771;28;20175;-88
2023/01/27 08:27:19;;;;;;;72.03;38.73;;;;;;;-141.97;100.00;47880.44;5072653;28;20621;-88
2023/01/27 08:29:44;;;;;;;76.23;42.53;;;;;;;-141.97;100.00;47886.22;5081170;28;20165;-87
2023/01/27 08:32:10;;;;;;;75.17;40.47;;;;;;;-141.97;100.00;47955.41;5094475;28;20183;-87
2023/01/27 08:34:36;;;;;;;71.23;37.57;;;;;;;-141.97;100.00;48024.63;5074957;28;20196;-87
2023/01/27 08:37:02;;;;;;;56.57;28.17;;;;;;;-141.97;100.00;47876.59;5073005;28;20168;-87
2023/01/27 08:39:28;;;;;;;66.93;35.20;;;;;;;-141.97;100.00;47842.00;5071735;28;20429;-86
2023/01/27 08:41:53;;;;;;;39.20;22.17;;;;;;;-141.97;100.00;47947.72;5072757;28;20532;-87
2023/01/27 08:44:18;;;;;;;45.57;22.40;;;;;;;-141.97;100.00;47968.88;5071794;28;20310;-86
2023/01/27 08:46:44;;;;;;;39.73;21.80;;;;;;;-141.97;100.00;47957.34;5073098;28;20168;-88
2023/01/27 08:49:09;;;;;;;42.60;23.83;;;;;;;-141.97;100.00;47913.13;5073663;28;20199;-87
2023/01/27 08:51:35;;;;;;;46.67;22.60;;;;;;;-141.97;100.00;47872.75;5071336;28;20263;-88
2023/01/27 08:54:00;;;;;;;53.03;24.10;;;;;;;-141.97;100.00;47853.53;5072748;28;20173;-87
2023/01/27 08:56:26;;;;;;;63.07;27.13;;;;;;;-141.97;100.00;47903.50;5073690;28;20173;-87
2023/01/27 08:58:51;;;;;;;60.37;27.90;;;;;;;-141.97;100.00;47932.34;5092178;28;20211;-90
2023/01/27 09:01:18;;;;;;;62.43;23.50;;;;;;;-141.97;100.00;47922.72;5104729;28;20228;-88
2023/01/27 09:03:43;;;;;;;40.10;20.10;;;;;;;-141.97;100.00;47849.69;5078870;28;20271;-89
2023/01/27 09:06:11;;;;;;;40.87;20.33;;;;;;;-141.97;100.00;47943.88;5077332;28;20446;-87
2023/01/27 09:08:37;;;;;;;42.33;21.73;;;;;;;-141.97;100.00;47899.66;5072420;28;20177;-88
2023/01/27 09:11:11;;;;;;;43.70;23.87;;;;;;;-141.97;100.00;47920.81;5059244;28;20480;-88
2023/01/27 09:13:36;;;;;;;56.00;28.80;;;;;;;-141.97;100.00;47957.34;5074205;28;20257;-87
2023/01/27 09:16:02;;;;;;;40.90;20.80;;;;;;;-141.97;100.00;47965.03;5091543;28;20438;-88
2023/01/27 09:18:27;;;;;;;38.50;19.07;;;;;;;-141.97;100.00;47965.03;5075382;28;20210;-88
2023/01/27 09:20:53;;;;;;;45.23;21.93;;;;;;;-141.97;100.00;47884.28;5074966;28;20260;-88
2023/01/27 09:23:18;;;;;;;55.00;29.07;;;;;;;-141.97;100.00;47834.31;5106289;28;20196;-88
2023/01/27 09:25:44;;;;;;;51.10;25.57;;;;;;;-141.97;100.00;47895.81;5076804;28;20549;-88
2023/01/27 09:28:15;;;;;;;46.73;22.67;;;;;;;-141.97;100.00;47849.69;5075672;28;20259;-89
2023/01/27 09:30:43;;;;;;;52.13;23.93;;;;;;;-141.97;100.00;47843.91;5074442;28;20176;-89
2023/01/27 09:33:08;;;;;;;44.20;21.70;;;;;;;-141.97;100.00;47907.34;5092069;28;20422;-90
2023/01/27 09:35:46;;;;;;;41.40;20.27;;;;;;;-141.97;100.00;47915.03;5074368;28;20406;-89
2023/01/27 09:38:14;;;;;;;46.63;23.93;;;;;;;-141.97;100.00;47884.28;5075416;28;20191;-89
2023/01/27 09:41:20;;;;;;;78.40;42.00;;;;;;;-141.97;100.00;47938.09;5075166;28;20407;-88
2023/01/27 09:43:54;;;;;;;229.90;113.60;;;;;;;-141.97;100.00;47922.72;5092401;28;20447;-87
2023/01/27 09:46:49;;;;;;;186.77;98.53;;;;;;;-141.97;100.00;47897.75;5092246;28;20500;-88
2023/01/27 09:49:33;;;;;;;120.47;60.07;;;;;;;-141.97;100.00;47895.81;5074260;28;20417;-87
2023/01/27 09:52:11;;;;;;;206.67;90.63;;;;;;;-141.97;100.00;47918.88;5092192;28;20865;-87
2023/01/27 09:54:50;;;;;;;90.20;41.73;;;;;;;-141.97;100.00;47940.03;5094051;28;20455;-88
2023/01/27 09:57:54;;;;;;;61.90;28.77;;;;;;;-141.97;100.00;47905.44;5075467;28;20535;-87
2023/01/27 10:01:10;;;;;;;51.40;25.73;;;;;;;-141.97;100.00;47934.25;5073428;28;20449;-87
2023/01/27 10:04:09;;;;;;;72.73;33.33;;;;;;;-141.97;100.00;47991.94;4971149;28;20438;-87
2023/01/27 10:07:13;;;;;;;50.63;25.40;;;;;;;-141.97;100.00;47934.25;4972828;28;20510;-86
2023/01/27 10:10:19;;;;;;;48.97;24.73;;;;;;;-141.97;100.00;47970.78;4932669;29;20961;-87
2023/01/27 10:12:57;;;;;;;49.60;24.23;;;;;;;-141.97;100.00;47918.88;4885211;29;20510;-86
2023/01/27 10:15:43;;;;;;;49.60;25.40;;;;;;;-141.97;100.00;47920.81;4881202;29;20440;-86
2023/01/27 10:18:30;;;;;;;51.10;26.17;;;;;;;-141.97;100.00;47926.56;4876379;29;20494;-87
2023/01/27 10:21:05;;;;;;;44.43;21.37;;;;;;;-141.97;100.00;47938.09;4879938;29;20482;-89
2023/01/27 10:23:52;;;;;;;47.63;23.50;;;;;;;-141.97;100.00;47953.50;4895891;29;20476;-88
2023/01/27 10:26:55;;;;;;;35.97;18.03;;;;;;;-141.97;100.00;47920.81;4894746;29;21050;-88
2023/01/27 10:29:24;;;;;;;42.73;21.57;;;;;;;-141.97;100.00;47930.41;4894114;29;20435;-89
2023/01/27 10:32:23;;;;;;;106.67;47.03;;;;;;;-141.97;100.00;47961.19;4894780;29;20478;-89
2023/01/27 10:35:12;;;;;;;84.33;37.80;;;;;;;-141.97;100.00;47959.25;4879177;29;20474;-90
2023/01/27 10:37:37;;;;;;;50.47;22.57;;;;;;;-141.97;100.00;47932.34;4894554;29;20469;-87
2023/01/27 10:40:11;;;;;;;62.00;28.50;;;;;;;-141.97;100.00;47890.06;4928324;28;20451;-90
2023/01/27 10:43:02;;;;;;;57.87;26.27;;;;;;;-141.97;100.00;47930.41;4970720;28;20287;-90
2023/01/27 10:46:06;;;;;;;65.27;29.10;;;;;;;-141.97;100.00;47922.72;4985618;28;21024;-87
2023/01/27 10:48:42;;;;;;;97.33;37.77;;;;;;;-141.97;100.00;47945.81;4981143;28;20424;-88
2023/01/27 10:51:13;;;;;;;103.77;42.77;;;;;;;-141.97;100.00;47911.19;5013311;28;20447;-89
2023/01/27 10:53:50;;;;;;;106.53;44.97;;;;;;;-141.97;100.00;47928.50;5052997;28;20437;-87
2023/01/27 10:56:41;;;;;;;72.03;35.07;;;;;;;-141.97;100.00;47876.59;5033165;28;20431;-88
2023/01/27 10:59:28;;;;;;;92.33;46.67;;;;;;;-141.97;100.00;47961.19;5051186;28;20502;-89
2023/01/27 11:02:02;;;;;;;59.50;30.30;;;;;;;-141.97;100.00;47890.06;5035320;28;20436;-90
2023/01/27 11:04:42;;;;;;;114.47;51.07;;;;;;;-141.97;100.00;47988.09;5052840;28;20439;-90
2023/01/27 11:07:15;;;;;;;94.37;42.67;;;;;;;-141.97;100.00;47911.19;5037848;28;20409;-89
2023/01/27 11:09:47;;;;;;;33.80;17.30;;;;;;;-141.97;100.00;47901.59;5014273;28;20483;-87
2023/01/27 11:12:14;;;;;;;52.57;25.73;;;;;;;-141.97;100.00;47888.13;5011900;28;21082;-87
2023/01/27 11:14:49;;;;;;;50.70;26.20;;;;;;;-141.97;100.00;47924.66;5041873;28;20429;-87
2023/01/27 11:17:26;;;;;;;62.30;32.00;;;;;;;-141.97;100.00;47895.81;5054327;28;20445;-87
2023/01/27 11:20:25;;;;;;;107.57;48.07;;;;;;;-141.97;100.00;47922.72;5039178;28;20453;-88
2023/01/27 11:23:03;;;;;;;70.60;34.33;;;;;;;-141.97;100.00;47857.38;5036181;28;20897;-88
2023/01/27 11:25:46;;;;;;;92.63;43.10;;;;;;;-141.97;100.00;47953.50;5072782;28;20416;-88
2023/01/27 11:28:21;;;;;;;43.10;20.27;;;;;;;-141.97;100.00;47907.34;5079293;28;20449;-87
2023/01/27 11:31:12;;;;;;;34.50;16.23;;;;;;;-141.97;100.00;47915.03;5076270;28;20917;-88
2023/01/27 11:34:16;;;;;;;36.77;18.50;;;;;;;-141.97;100.00;47893.91;5075176;28;20410;-88
2023/01/27 11:36:42;;;;;;;32.47;16.33;;;;;;;-141.97;100.00;47874.69;4996533;28;20905;-89
2023/01/27 11:39:09;;;;;;;29.90;14.57;;;;;;;-141.97;100.00;47909.28;4995749;28;20469;-88
2023/01/27 11:41:44;;;;;;;49.23;24.83;;;;;;;-141.97;100.00;47968.88;4995748;28;21016;-88